aviador You're here:

WSSS Decoded Metar

SINGAPORE in SINGAPORE
Report Time2018-02-25 11:00:00
UTC Time2018-02-25 11:14:57
Flight Rules vfr VFR
Wind030° at 07 kt
W.Decomp.*RWY 02: 6.9 kt HW 1.2 kt RCW
W.Rank030° ranks 2
Current wind is above 030° avg. (4.6)
Visibility9999 m
Phenomena:N/A
Clouds:Few 018 Hf
Scattered 260 Hf
Expected CloudBase > 2,000 ft AGL from Temp-Dew spread
CeilingNone
Temp28°C (ISA +13)
Dew Point23°C (74% RH)
Heat Index31.2°C
QNH1009 hPa
Density Alt2,064 ft
Elevation52 ft
Report Wrong Elevation
Raw Report
WSSS 251100Z 03007KT 290V090 9999 FEW018 SCT260 28/23 Q1009
NOSIG=

Extra information for WSSS:More info

Metar Taf Metar & Taf Last 4 Metars F.Rules Stats Wind Profile Meteogram Temp Stats Airport Information Weather charts Add Link Nearby VenuesMetar ALERT Operation Metar Decoded Social comments